Terminal Aerodrome Forecast
Issued by NWS Grand Forks, ND

Home | Current Version | Previous Version | Text Only | Print | Product List | Glossary On
Versions: 1 2 3 4 5 6 7 8 9 10 11 12 13
000
FTUS43 KFGF 272300
TAFGFK
TAF
KGFK 272339Z 2800/2824 24003KT P6SM OVC050
      TEMPO 2800/2803 1SM -SN BR OVC012
     FM280300 31008KT P6SM BKN025
     FM280900 34011KT P6SM SCT250=

USA.gov is the U.S. government's official web portal to all federal, state and local government web resources and services.